createdAt,value
2022-12-14T00:01:27.752Z,28.85
2022-12-14T00:04:13.190Z,26.75
2022-12-14T00:06:58.975Z,28.25
2022-12-14T00:09:45.695Z,26.40
2022-12-14T00:12:31.446Z,28.60
2022-12-14T00:15:17.098Z,27.75
2022-12-14T00:18:03.106Z,26.08
2022-12-14T00:20:48.659Z,27.45
2022-12-14T00:23:38.926Z,25.08
2022-12-14T00:26:30.914Z,22.65
2022-12-14T00:29:16.965Z,22.48
2022-12-14T00:32:02.562Z,23.33
2022-12-14T00:34:48.327Z,20.60
2022-12-14T00:37:34.062Z,23.42
2022-12-14T00:40:19.895Z,25.02
2022-12-14T00:43:05.566Z,24.05
2022-12-14T00:45:51.639Z,22.67
2022-12-14T00:48:37.146Z,21.88
2022-12-14T00:51:22.626Z,22.45
2022-12-14T00:54:07.976Z,25.02
2022-12-14T00:56:53.624Z,23.63
2022-12-14T00:59:39.386Z,27.67
2022-12-14T01:02:25.243Z,24.55
2022-12-14T01:05:11.289Z,25.40
2022-12-14T01:07:56.778Z,27.23
2022-12-14T01:10:42.302Z,25.65
2022-12-14T01:13:28.266Z,30.30
2022-12-14T01:16:15.149Z,28.27
2022-12-14T01:19:01.449Z,30.48
2022-12-14T01:21:47.249Z,27.20
2022-12-14T01:24:33.196Z,26.77
2022-12-14T01:27:19.245Z,29.95
2022-12-14T01:30:05.258Z,22.85
2022-12-14T01:32:50.729Z,26.83
2022-12-14T01:35:36.197Z,26.45
2022-12-14T01:38:21.987Z,27.90
2022-12-14T01:41:08.555Z,24.90
2022-12-14T01:44:24.538Z,26.48
2022-12-14T01:47:13.117Z,26.90
2022-12-14T01:50:10.848Z,28.25
2022-12-14T01:53:01.550Z,29.48
2022-12-14T01:55:51.831Z,25.38
2022-12-14T02:01:23.098Z,27.25
2022-12-14T02:04:11.171Z,27.13
2022-12-14T02:07:01.111Z,30.17
2022-12-14T02:09:48.113Z,27.13
2022-12-14T02:12:45.395Z,28.40
2022-12-14T02:15:32.055Z,24.85
2022-12-14T02:18:22.480Z,26.67
2022-12-14T02:21:42.488Z,25.70
2022-12-14T02:24:39.972Z,22.48
2022-12-14T02:27:50.313Z,25.45
2022-12-14T02:30:42.709Z,23.63
2022-12-14T02:33:30.944Z,24.73
2022-12-14T02:36:55.282Z,26.02
2022-12-14T02:39:53.097Z,27.67
2022-12-14T02:42:47.701Z,25.27
2022-12-14T02:45:33.184Z,26.90
2022-12-14T02:48:24.564Z,27.52
2022-12-14T02:51:53.845Z,30.95
2022-12-14T02:54:53.242Z,27.30
2022-12-14T02:57:47.574Z,24.85
2022-12-14T03:00:36.511Z,27.38
2022-12-14T03:03:22.461Z,27.90
2022-12-14T03:06:15.762Z,27.63
2022-12-14T03:09:09.073Z,28.80
2022-12-14T03:12:11.949Z,29.60
2022-12-14T03:14:59.645Z,28.73
2022-12-14T03:17:49.256Z,31.00
2022-12-14T03:20:37.596Z,30.73
2022-12-14T03:23:27.423Z,29.40
2022-12-14T03:26:32.440Z,28.88
2022-12-14T03:29:25.401Z,28.02
2022-12-14T03:32:13.958Z,31.70
2022-12-14T03:35:11.009Z,32.78
2022-12-14T03:37:56.284Z,32.85
2022-12-14T03:40:55.764Z,28.90
2022-12-14T03:44:06.981Z,29.02
2022-12-14T03:47:28.629Z,29.08
2022-12-14T03:50:24.986Z,30.65
2022-12-14T03:53:16.590Z,28.02
2022-12-14T03:56:13.918Z,26.95
2022-12-14T03:59:08.543Z,30.58
2022-12-14T04:02:26.726Z,26.67
2022-12-14T04:05:45.468Z,25.02
2022-12-14T04:08:55.434Z,27.73
2022-12-14T04:12:07.927Z,25.90
2022-12-14T04:15:26.185Z,25.85
2022-12-14T04:18:42.917Z,24.08
2022-12-14T04:21:36.557Z,25.40
2022-12-14T04:25:01.572Z,27.25
2022-12-14T04:28:09.261Z,26.58
2022-12-14T04:30:59.971Z,28.05
2022-12-14T04:33:52.918Z,25.38
2022-12-14T04:36:58.928Z,26.10
2022-12-14T04:39:49.868Z,27.48
2022-12-14T04:42:42.154Z,26.13
2022-12-14T04:45:40.891Z,28.63
2022-12-14T04:48:45.076Z,28.00
2022-12-14T04:52:01.910Z,26.92
2022-12-14T04:57:51.636Z,28.88
2022-12-14T05:00:47.809Z,31.17
2022-12-14T05:03:43.708Z,27.35
2022-12-14T05:06:35.322Z,23.83
2022-12-14T05:09:44.182Z,25.92
2022-12-14T05:12:48.593Z,27.80
2022-12-14T05:15:46.774Z,26.77
2022-12-14T05:18:35.119Z,24.33
2022-12-14T05:21:39.572Z,25.63
2022-12-14T05:24:24.934Z,25.52
2022-12-14T05:27:10.509Z,26.27
2022-12-14T05:29:58.333Z,25.75
2022-12-14T05:32:44.148Z,27.30
2022-12-14T05:35:29.910Z,27.52
2022-12-14T05:38:15.463Z,26.17
2022-12-14T05:41:01.367Z,27.60
2022-12-14T05:43:47.068Z,31.45
2022-12-14T05:46:34.952Z,33.75
2022-12-14T05:49:20.701Z,28.52
2022-12-14T05:52:06.658Z,31.38
2022-12-14T05:54:57.185Z,29.42
2022-12-14T05:57:46.533Z,27.58
2022-12-14T06:00:32.194Z,25.90
2022-12-14T06:03:17.988Z,31.33
2022-12-14T06:06:06.279Z,27.92
2022-12-14T06:08:51.669Z,31.08
2022-12-14T06:11:39.949Z,28.48
2022-12-14T06:14:25.678Z,31.67
2022-12-14T06:17:12.652Z,31.50
2022-12-14T06:19:58.358Z,31.77
2022-12-14T06:22:47.544Z,31.35
2022-12-14T06:25:33.587Z,33.63
2022-12-14T06:28:19.252Z,29.27
2022-12-14T06:31:06.328Z,33.42
2022-12-14T06:33:53.262Z,31.95
2022-12-14T06:36:40.905Z,30.83
2022-12-14T06:39:26.728Z,29.88
2022-12-14T06:42:11.957Z,33.60
2022-12-14T06:44:57.490Z,34.10
2022-12-14T06:47:43.233Z,36.17
2022-12-14T06:50:29.032Z,35.25
2022-12-14T06:53:14.858Z,31.55
2022-12-14T06:56:11.853Z,29.80
2022-12-14T06:58:59.072Z,29.75
2022-12-14T07:01:46.141Z,34.03
2022-12-14T07:04:35.802Z,31.80
2022-12-14T07:07:21.438Z,33.40
2022-12-14T07:10:08.747Z,31.75
2022-12-14T07:12:55.707Z,35.40
2022-12-14T07:15:41.650Z,35.58
2022-12-14T07:18:28.164Z,34.63
2022-12-14T07:21:17.308Z,34.17
2022-12-14T07:24:03.377Z,32.38
2022-12-14T07:26:49.408Z,36.17
2022-12-14T07:29:35.206Z,38.47
2022-12-14T07:32:20.796Z,35.67
2022-12-14T07:35:09.442Z,34.50
2022-12-14T07:37:58.957Z,34.60
2022-12-14T07:40:45.312Z,33.15
2022-12-14T07:43:31.058Z,33.40
2022-12-14T07:46:20.664Z,33.50
2022-12-14T07:49:06.714Z,31.13
2022-12-14T07:51:52.969Z,32.22
2022-12-14T07:54:38.726Z,35.22
2022-12-14T07:57:24.272Z,37.72
2022-12-14T08:00:10.540Z,34.10
2022-12-14T08:02:59.188Z,35.80
2022-12-14T08:05:44.470Z,35.50
2022-12-14T08:08:30.386Z,33.72
2022-12-14T08:11:17.400Z,34.25
2022-12-14T08:14:08.469Z,34.40
2022-12-14T08:16:54.013Z,37.42
2022-12-14T08:19:39.650Z,92.05
2022-12-14T08:22:25.202Z,46.85
2022-12-14T08:25:10.989Z,37.85
2022-12-14T08:27:56.623Z,69.90
2022-12-14T08:30:42.390Z,64.47
2022-12-14T08:33:28.025Z,67.15
2022-12-14T08:36:16.653Z,69.45
2022-12-14T08:39:06.363Z,65.30
2022-12-14T08:41:51.968Z,43.03
2022-12-14T08:44:37.471Z,40.63
2022-12-14T08:47:23.040Z,38.60
2022-12-14T08:50:09.542Z,67.20
2022-12-14T08:52:55.475Z,54.67
2022-12-14T08:55:41.190Z,53.88
2022-12-14T08:58:27.101Z,47.25
2022-12-14T09:01:15.897Z,48.25
2022-12-14T09:04:07.968Z,39.75
2022-12-14T09:06:53.577Z,38.03
2022-12-14T09:09:39.287Z,40.75
2022-12-14T09:12:25.302Z,38.75
2022-12-14T09:15:11.400Z,40.58
2022-12-14T09:17:56.734Z,41.42
2022-12-14T09:20:43.452Z,39.38
2022-12-14T09:23:30.910Z,37.58
2022-12-14T09:26:19.659Z,44.15
2022-12-14T09:29:05.379Z,43.22
2022-12-14T09:31:50.782Z,46.50
2022-12-14T09:34:36.585Z,44.13
2022-12-14T09:37:22.220Z,49.20
2022-12-14T09:40:10.365Z,44.22
2022-12-14T09:43:04.669Z,41.65
2022-12-14T09:45:58.372Z,37.88
2022-12-14T09:48:44.687Z,40.45
2022-12-14T09:51:36.800Z,38.92
2022-12-14T09:54:27.615Z,39.13
2022-12-14T09:57:37.220Z,40.13
2022-12-14T10:00:22.738Z,36.42
2022-12-14T10:03:23.783Z,32.80
2022-12-14T10:06:21.766Z,37.40
2022-12-14T10:09:21.235Z,32.90
2022-12-14T10:12:34.204Z,33.83
2022-12-14T10:15:32.146Z,33.70
2022-12-14T10:21:44.568Z,34.17
2022-12-14T10:24:45.018Z,46.38
2022-12-14T10:30:36.462Z,36.25
2022-12-14T10:33:21.987Z,31.73
2022-12-14T10:36:28.792Z,33.17
2022-12-14T10:39:30.226Z,30.92
2022-12-14T10:42:26.095Z,33.05
2022-12-14T10:48:34.599Z,28.38
2022-12-14T10:51:50.263Z,32.15
2022-12-14T10:54:43.368Z,33.88
2022-12-14T10:57:28.702Z,29.92
2022-12-14T11:00:22.799Z,30.90
2022-12-14T11:03:15.785Z,33.65
2022-12-14T11:06:20.021Z,32.55
2022-12-14T11:09:21.551Z,31.23
2022-12-14T11:12:28.044Z,27.05
2022-12-14T11:15:25.965Z,30.02
2022-12-14T11:18:17.793Z,27.77
2022-12-14T11:21:05.664Z,29.80
2022-12-14T11:23:54.656Z,30.20
2022-12-14T11:26:42.559Z,35.70
2022-12-14T11:29:36.655Z,37.65
2022-12-14T11:32:25.728Z,34.80
2022-12-14T11:35:18.329Z,30.92
2022-12-14T11:38:05.703Z,31.67
2022-12-14T11:40:52.527Z,33.10
2022-12-14T11:43:41.144Z,38.08
2022-12-14T11:47:08.432Z,37.45
2022-12-14T11:49:57.822Z,33.50
2022-12-14T11:52:43.281Z,30.15
2022-12-14T11:55:29.211Z,32.75
2022-12-14T11:58:32.272Z,32.45
2022-12-14T12:01:24.371Z,34.83
2022-12-14T12:04:15.246Z,35.05
2022-12-14T12:07:24.257Z,30.58
2022-12-14T12:10:12.937Z,36.80
2022-12-14T12:13:01.440Z,34.30
2022-12-14T12:15:54.630Z,36.15
2022-12-14T12:18:59.202Z,35.65
2022-12-14T12:21:45.313Z,37.85
2022-12-14T12:28:23.594Z,38.40
2022-12-14T12:31:14.863Z,39.97
2022-12-14T12:34:12.140Z,37.22
2022-12-14T12:37:25.784Z,39.30
2022-12-14T12:40:29.210Z,39.72
2022-12-14T12:43:14.543Z,37.00
2022-12-14T12:46:05.631Z,37.25
2022-12-14T12:48:58.382Z,38.65
2022-12-14T12:51:59.983Z,38.30
2022-12-14T12:54:57.136Z,36.53
2022-12-14T12:57:47.400Z,40.78
2022-12-14T13:00:33.824Z,35.65
2022-12-14T13:03:37.408Z,35.67
2022-12-14T13:06:31.038Z,37.72
2022-12-14T13:09:21.501Z,39.85
2022-12-14T13:12:14.548Z,37.20
2022-12-14T13:15:02.606Z,35.05
2022-12-14T13:17:53.080Z,36.28
2022-12-14T13:20:38.602Z,35.20
2022-12-14T13:23:45.448Z,36.97
2022-12-14T13:26:57.826Z,37.58
2022-12-14T13:30:02.351Z,35.55
2022-12-14T13:33:22.112Z,34.78
2022-12-14T13:36:28.634Z,37.63
2022-12-14T13:40:09.448Z,37.65
2022-12-14T13:43:06.936Z,37.00
2022-12-14T13:45:54.689Z,34.20
2022-12-14T13:48:41.577Z,33.95
2022-12-14T13:51:36.142Z,35.38
2022-12-14T13:54:27.893Z,32.58
2022-12-14T13:57:21.855Z,35.55
2022-12-14T14:00:08.043Z,37.45
2022-12-14T14:02:57.360Z,37.58
2022-12-14T14:05:45.687Z,40.22
2022-12-14T14:08:41.730Z,37.05
2022-12-14T14:11:37.069Z,39.95
2022-12-14T14:15:11.276Z,36.10
2022-12-14T14:18:12.413Z,36.40
2022-12-14T14:21:13.114Z,37.42
2022-12-14T14:24:17.948Z,42.17
2022-12-14T14:27:18.349Z,41.65
2022-12-14T14:30:24.928Z,38.65
2022-12-14T14:33:47.362Z,39.03
2022-12-14T14:36:36.123Z,37.10
2022-12-14T14:39:56.121Z,37.15
2022-12-14T14:42:51.576Z,37.53
2022-12-14T14:45:53.108Z,35.03
2022-12-14T14:48:55.494Z,40.13
2022-12-14T14:51:40.940Z,40.03
2022-12-14T14:55:10.719Z,41.10
2022-12-14T14:57:57.537Z,39.13
2022-12-14T15:01:00.127Z,38.72
2022-12-14T15:03:45.583Z,42.95
2022-12-14T15:06:43.721Z,41.53
2022-12-14T15:09:39.189Z,38.83
2022-12-14T15:12:41.826Z,42.50
2022-12-14T15:15:38.680Z,38.83
2022-12-14T15:18:32.896Z,35.63
2022-12-14T15:21:19.322Z,35.33
2022-12-14T15:24:05.258Z,37.30
2022-12-14T15:26:50.917Z,40.40
2022-12-14T15:29:37.398Z,37.63
2022-12-14T15:32:24.262Z,35.92
2022-12-14T15:35:18.619Z,36.17
2022-12-14T15:38:16.634Z,35.03
2022-12-14T15:41:05.844Z,36.33
2022-12-14T15:43:56.459Z,38.70
2022-12-14T15:46:53.278Z,35.17
2022-12-14T15:49:39.538Z,35.25
2022-12-14T15:52:29.944Z,33.70
2022-12-14T15:58:26.817Z,34.08
2022-12-14T16:01:34.548Z,34.75
2022-12-14T16:04:22.953Z,33.92
2022-12-14T16:07:34.959Z,34.70
2022-12-14T16:10:34.366Z,34.05
2022-12-14T16:13:25.358Z,32.65
2022-12-14T16:16:13.302Z,32.70
2022-12-14T16:19:20.229Z,33.80
2022-12-14T16:22:28.079Z,34.13
2022-12-14T16:25:19.112Z,33.45
2022-12-14T16:28:33.905Z,33.20
2022-12-14T16:31:21.438Z,33.00
2022-12-14T16:34:18.757Z,33.83
2022-12-14T16:37:31.625Z,53.22
2022-12-14T16:40:40.834Z,49.05
2022-12-14T16:43:55.984Z,37.20
2022-12-14T16:46:50.388Z,34.50
2022-12-14T16:49:50.158Z,36.03
2022-12-14T16:55:26.285Z,40.63
2022-12-14T16:58:17.473Z,36.55
2022-12-14T17:01:07.047Z,37.78
2022-12-14T17:04:00.782Z,44.10
2022-12-14T17:06:51.154Z,42.20
2022-12-14T17:09:37.189Z,36.17
2022-12-14T17:12:24.520Z,41.55
2022-12-14T17:15:16.867Z,37.25
2022-12-14T17:18:04.427Z,35.15
2022-12-14T17:20:50.242Z,40.88
2022-12-14T17:23:38.756Z,46.47
2022-12-14T17:26:28.173Z,46.38
2022-12-14T17:29:25.811Z,50.58
2022-12-14T17:32:13.978Z,45.67
2022-12-14T17:35:00.719Z,46.08
2022-12-14T17:37:46.575Z,44.83
2022-12-14T17:40:32.567Z,44.67
2022-12-14T17:43:24.637Z,49.35
2022-12-14T17:46:10.170Z,50.33
2022-12-14T17:48:55.925Z,53.15
2022-12-14T17:51:44.687Z,57.03
2022-12-14T17:54:31.326Z,64.95
2022-12-14T17:57:20.227Z,50.13
2022-12-14T18:00:24.939Z,44.33
2022-12-14T18:03:12.320Z,41.47
2022-12-14T18:05:59.260Z,40.53
2022-12-14T18:08:46.023Z,45.70
2022-12-14T18:11:31.884Z,44.78
2022-12-14T18:14:17.455Z,48.25
2022-12-14T18:17:06.764Z,43.38
2022-12-14T18:19:57.014Z,44.78
2022-12-14T18:22:43.367Z,45.00
2022-12-14T18:25:43.225Z,47.72
2022-12-14T18:28:33.598Z,41.40
2022-12-14T18:31:32.742Z,39.05
2022-12-14T18:34:18.668Z,43.40
2022-12-14T18:37:04.779Z,38.88
2022-12-14T18:39:50.671Z,39.70
2022-12-14T18:42:36.596Z,38.47
2022-12-14T18:45:31.240Z,38.33
2022-12-14T18:48:16.887Z,36.15
2022-12-14T18:51:02.738Z,38.90
2022-12-14T18:53:50.792Z,36.92
2022-12-14T18:56:36.580Z,38.17
2022-12-14T18:59:22.249Z,37.50
2022-12-14T19:02:13.608Z,34.40
2022-12-14T19:04:59.106Z,36.55
2022-12-14T19:07:45.224Z,33.25
2022-12-14T19:10:33.093Z,36.20
2022-12-14T19:13:26.003Z,34.55
2022-12-14T19:16:12.550Z,36.20
2022-12-14T19:18:59.625Z,34.47
2022-12-14T19:21:44.985Z,32.13
2022-12-14T19:24:30.784Z,31.25
2022-12-14T19:27:35.637Z,36.78
2022-12-14T19:30:23.267Z,33.65
2022-12-14T19:33:10.449Z,31.52
2022-12-14T19:35:56.468Z,32.00
2022-12-14T19:38:41.846Z,29.33
2022-12-14T19:41:27.451Z,27.33
2022-12-14T19:44:13.403Z,31.48
2022-12-14T19:46:58.771Z,37.67
2022-12-14T19:49:44.340Z,37.05
2022-12-14T19:52:30.043Z,35.25
2022-12-14T19:55:15.666Z,36.83
2022-12-14T19:58:01.369Z,33.80
2022-12-14T20:00:46.924Z,37.13
2022-12-14T20:03:33.007Z,34.75
2022-12-14T20:06:18.704Z,38.15
2022-12-14T20:09:06.119Z,40.03
2022-12-14T20:11:51.660Z,41.65
2022-12-14T20:14:40.081Z,46.25
2022-12-14T20:17:26.994Z,43.67
2022-12-14T20:20:12.508Z,40.10
2022-12-14T20:22:57.819Z,34.17
2022-12-14T20:25:43.545Z,34.05
2022-12-14T20:28:29.680Z,33.50
2022-12-14T20:31:15.695Z,32.92
2022-12-14T20:34:04.288Z,31.25
2022-12-14T20:36:49.799Z,34.13
2022-12-14T20:39:35.557Z,32.47
2022-12-14T20:42:21.268Z,32.60
2022-12-14T20:45:10.483Z,29.17
2022-12-14T20:48:14.293Z,28.90
2022-12-14T20:51:07.026Z,31.85
2022-12-14T20:53:54.170Z,32.13
2022-12-14T20:56:40.912Z,31.77
2022-12-14T20:59:27.516Z,28.95
2022-12-14T21:02:18.589Z,28.38
2022-12-14T21:05:04.670Z,27.95
2022-12-14T21:07:50.285Z,25.95
2022-12-14T21:10:36.165Z,26.05
2022-12-14T21:13:21.819Z,27.65
2022-12-14T21:16:09.829Z,24.38
2022-12-14T21:18:55.062Z,26.23
2022-12-14T21:21:41.924Z,24.92
2022-12-14T21:25:00.975Z,24.33
2022-12-14T21:27:35.702Z,24.50
2022-12-14T21:30:21.152Z,23.25
2022-12-14T21:33:06.734Z,25.08
2022-12-14T21:35:52.246Z,22.40
2022-12-14T21:38:38.693Z,23.17
2022-12-14T21:41:43.828Z,22.65
2022-12-14T21:44:30.891Z,23.50
2022-12-14T21:47:21.026Z,23.38
2022-12-14T21:50:07.142Z,25.38
2022-12-14T21:52:52.651Z,23.88
2022-12-14T21:55:38.265Z,25.13
2022-12-14T21:58:24.657Z,23.38
2022-12-14T22:01:10.222Z,26.58
2022-12-14T22:03:55.839Z,27.17
2022-12-14T22:06:41.408Z,25.27
2022-12-14T22:09:27.284Z,26.65
2022-12-14T22:12:13.503Z,31.83
2022-12-14T22:14:59.024Z,38.67
2022-12-14T22:17:44.600Z,30.92
2022-12-14T22:20:30.667Z,26.88
2022-12-14T22:23:16.270Z,26.17
2022-12-14T22:26:01.816Z,25.00
2022-12-14T22:28:53.895Z,24.40
2022-12-14T22:31:39.165Z,24.20
2022-12-14T22:34:24.650Z,22.17
2022-12-14T22:37:12.864Z,21.20
2022-12-14T22:39:58.428Z,21.85
2022-12-14T22:42:44.677Z,21.15
2022-12-14T22:45:30.568Z,19.42
2022-12-14T22:48:16.772Z,17.65
2022-12-14T22:51:08.964Z,17.70
2022-12-14T22:53:54.801Z,19.00
2022-12-14T22:56:44.714Z,19.10
2022-12-14T23:02:23.644Z,18.30
2022-12-14T23:05:10.346Z,19.60
2022-12-14T23:07:55.854Z,18.83
2022-12-14T23:11:00.999Z,19.45
2022-12-14T23:14:04.682Z,19.40
2022-12-14T23:17:08.897Z,17.85
2022-12-14T23:20:12.915Z,19.83
2022-12-14T23:23:17.149Z,18.48
2022-12-14T23:26:22.882Z,19.80
2022-12-14T23:29:26.998Z,20.95
2022-12-14T23:32:31.128Z,18.63
2022-12-14T23:35:35.329Z,21.23
2022-12-14T23:38:39.332Z,19.40
2022-12-14T23:41:43.431Z,19.10
2022-12-14T23:44:47.673Z,19.63
2022-12-14T23:47:51.964Z,18.75
2022-12-14T23:50:56.378Z,19.45
2022-12-14T23:54:00.335Z,18.55
2022-12-14T23:57:04.352Z,18.75
